createdAt,value
2023-02-17T00:01:33.177Z,102504.19
2023-02-17T00:06:37.034Z,102500.44
2023-02-17T00:11:40.812Z,102497.28
2023-02-17T00:16:46.391Z,102502.47
2023-02-17T00:21:52.763Z,102503.84
2023-02-17T00:26:56.814Z,102513.84
2023-02-17T00:32:01.037Z,102508.19
2023-02-17T00:37:05.065Z,102504.56
2023-02-17T00:42:09.812Z,102496.50
2023-02-17T00:47:13.539Z,102495.84
2023-02-17T00:52:17.385Z,102502.94
2023-02-17T00:57:21.264Z,102412.75
2023-02-17T01:02:25.033Z,102498.44
2023-02-17T01:07:30.008Z,102508.47
2023-02-17T01:12:33.807Z,102525.97
2023-02-17T01:17:37.902Z,102444.44
2023-02-17T01:22:42.072Z,102507.16
2023-02-17T01:27:47.808Z,102524.78
2023-02-17T01:32:51.799Z,102458.44
2023-02-17T01:37:55.632Z,102541.88
2023-02-17T01:43:00.267Z,102532.66
2023-02-17T01:48:10.299Z,102536.38
2023-02-17T01:53:18.899Z,102531.69
2023-02-17T01:58:25.505Z,102453.94
2023-02-17T02:03:33.588Z,102540.84
2023-02-17T02:08:52.779Z,102536.69
2023-02-17T02:13:59.092Z,102543.00
2023-02-17T02:19:24.434Z,102534.78
2023-02-17T02:24:46.282Z,102538.47
2023-02-17T02:29:52.965Z,102538.50
2023-02-17T02:35:38.053Z,102539.88
2023-02-17T02:40:49.713Z,102537.16
2023-02-17T02:45:53.523Z,102525.22
2023-02-17T02:51:03.285Z,102546.97
2023-02-17T02:56:14.762Z,102552.16
2023-02-17T03:01:34.100Z,102552.44
2023-02-17T03:06:47.438Z,102547.00
2023-02-17T03:11:53.490Z,102544.72
2023-02-17T03:16:57.426Z,102539.13
2023-02-17T03:22:27.139Z,102532.84
2023-02-17T03:27:31.376Z,102523.78
2023-02-17T03:32:35.339Z,102523.00
2023-02-17T03:37:39.507Z,102536.25
2023-02-17T03:42:43.299Z,102457.16
2023-02-17T03:47:47.284Z,102525.75
2023-02-17T03:52:51.314Z,102518.94
2023-02-17T03:57:55.036Z,102530.44
2023-02-17T04:02:58.954Z,102531.34
2023-02-17T04:08:02.833Z,102528.03
2023-02-17T04:13:07.010Z,102526.47
2023-02-17T04:18:11.018Z,102531.69
2023-02-17T04:23:15.240Z,102521.44
2023-02-17T04:28:19.969Z,102515.50
2023-02-17T04:33:23.834Z,102461.69
2023-02-17T04:38:29.610Z,102512.16
2023-02-17T04:43:34.008Z,102511.44
2023-02-17T04:48:37.985Z,102500.13
2023-02-17T04:53:41.853Z,102499.84
2023-02-17T04:58:45.640Z,102509.72
2023-02-17T05:03:49.617Z,102494.16
2023-02-17T05:08:54.662Z,102527.00
2023-02-17T05:13:58.927Z,102507.84
2023-02-17T05:19:03.011Z,102517.63
2023-02-17T05:24:07.218Z,102523.72
2023-02-17T05:29:11.270Z,102517.66
2023-02-17T05:34:15.174Z,102523.91
2023-02-17T05:39:19.250Z,102490.47
2023-02-17T05:44:23.205Z,102513.53
2023-02-17T05:49:27.912Z,102406.41
2023-02-17T05:54:31.738Z,102392.28
2023-02-17T05:59:35.453Z,102481.78
2023-02-17T06:04:39.560Z,102491.78
2023-02-17T06:09:43.432Z,102482.41
2023-02-17T06:14:47.977Z,102479.06
2023-02-17T06:19:52.113Z,102462.09
2023-02-17T06:24:55.929Z,102404.72
2023-02-17T06:29:59.916Z,102477.69
2023-02-17T06:35:03.838Z,102457.81
2023-02-17T06:40:09.120Z,102466.81
2023-02-17T06:45:12.906Z,102470.91
2023-02-17T06:50:16.986Z,102448.44
2023-02-17T06:55:21.150Z,102452.44
2023-02-17T07:00:25.111Z,102445.38
2023-02-17T07:05:29.549Z,102446.75
2023-02-17T07:10:34.152Z,102428.47
2023-02-17T07:15:38.223Z,102435.69
2023-02-17T07:20:42.418Z,102419.22
2023-02-17T07:25:46.355Z,102419.59
2023-02-17T07:30:50.438Z,102356.13
2023-02-17T07:35:54.592Z,102427.09
2023-02-17T07:40:58.513Z,102426.38
2023-02-17T07:46:02.781Z,102431.66
2023-02-17T07:51:12.332Z,102439.63
2023-02-17T07:56:17.745Z,102427.03
2023-02-17T08:01:25.266Z,102425.44
2023-02-17T08:06:29.286Z,102430.94
2023-02-17T08:11:51.687Z,102437.91
2023-02-17T08:16:55.802Z,102413.09
2023-02-17T08:22:00.939Z,102421.69
2023-02-17T08:27:04.942Z,102420.91
2023-02-17T08:32:10.430Z,102428.75
2023-02-17T08:37:14.319Z,102418.44
2023-02-17T08:42:18.914Z,102428.72
2023-02-17T08:47:22.999Z,102342.88
2023-02-17T08:52:26.844Z,102349.66
2023-02-17T08:57:32.093Z,102389.53
2023-02-17T09:02:36.587Z,102418.09
2023-02-17T09:07:41.209Z,102406.28
2023-02-17T09:12:45.134Z,102398.88
2023-02-17T09:17:49.260Z,102415.22
2023-02-17T09:22:53.514Z,102399.91
2023-02-17T09:27:59.846Z,102392.25
2023-02-17T09:33:06.268Z,102408.28
2023-02-17T09:38:11.211Z,102416.69
2023-02-17T09:43:27.629Z,102412.31
2023-02-17T09:48:35.016Z,102420.78
2023-02-17T09:53:50.449Z,102421.53
2023-02-17T09:58:56.804Z,102430.69
2023-02-17T10:04:08.364Z,102437.38
2023-02-17T10:09:23.782Z,102425.44
2023-02-17T10:14:41.549Z,102424.41
2023-02-17T10:20:00.997Z,102363.13
2023-02-17T10:25:17.667Z,102447.38
2023-02-17T10:30:48.649Z,102430.38
2023-02-17T10:36:15.423Z,102427.81
2023-02-17T10:41:28.840Z,102434.53
2023-02-17T10:46:33.824Z,102418.78
2023-02-17T10:51:37.673Z,102331.31
2023-02-17T10:56:55.215Z,102410.28
2023-02-17T11:02:16.591Z,102423.09
2023-02-17T11:07:27.663Z,102416.91
2023-02-17T11:12:40.839Z,102419.25
2023-02-17T11:17:46.379Z,102421.59
2023-02-17T11:23:01.527Z,102421.41
2023-02-17T11:28:12.458Z,102432.28
2023-02-17T11:33:23.522Z,102444.75
2023-02-17T11:38:49.936Z,102443.72
2023-02-17T11:44:00.012Z,102442.69
2023-02-17T11:49:28.614Z,102427.38
2023-02-17T11:54:54.036Z,102432.53
2023-02-17T12:00:06.094Z,102430.78
2023-02-17T12:05:27.094Z,102429.97
2023-02-17T12:10:52.765Z,102429.16
2023-02-17T12:16:07.181Z,102435.19
2023-02-17T12:21:27.198Z,102435.34
2023-02-17T12:27:12.777Z,102435.41
2023-02-17T12:32:39.756Z,102441.44
2023-02-17T12:37:56.228Z,102449.25
2023-02-17T12:43:28.023Z,102422.59
2023-02-17T12:48:42.010Z,102448.25
2023-02-17T12:54:06.301Z,102453.50
2023-02-17T12:59:28.477Z,102453.53
2023-02-17T13:04:35.216Z,102462.88
2023-02-17T13:09:43.381Z,102464.56
2023-02-17T13:15:03.711Z,102457.75
2023-02-17T13:20:11.371Z,102467.09
2023-02-17T13:25:37.125Z,102441.25
2023-02-17T13:30:46.424Z,102469.44
2023-02-17T13:35:50.852Z,102441.16
2023-02-17T13:41:02.239Z,102461.72
2023-02-17T13:46:07.153Z,102445.41
2023-02-17T13:51:27.306Z,102454.91
2023-02-17T13:56:33.348Z,102453.16
2023-02-17T14:01:41.734Z,102443.72
2023-02-17T14:06:45.609Z,102446.19
2023-02-17T14:11:50.722Z,102383.31
2023-02-17T14:17:04.024Z,102443.56
2023-02-17T14:22:08.156Z,102377.06
2023-02-17T14:27:15.579Z,102438.44
2023-02-17T14:32:38.510Z,102445.25
2023-02-17T14:37:45.882Z,102385.03
2023-02-17T14:42:52.050Z,102449.38
2023-02-17T14:47:57.489Z,102439.19
2023-02-17T14:53:01.727Z,102432.31
2023-02-17T14:58:05.950Z,102384.13
2023-02-17T15:03:10.844Z,102448.59
2023-02-17T15:08:18.465Z,102444.31
2023-02-17T15:13:23.523Z,102460.34
2023-02-17T15:18:28.227Z,102460.31
2023-02-17T15:23:35.411Z,102458.53
2023-02-17T15:28:39.703Z,102451.69
2023-02-17T15:33:45.462Z,102466.88
2023-02-17T15:38:51.968Z,102470.97
2023-02-17T15:43:58.499Z,102463.19
2023-02-17T15:49:03.324Z,102464.78
2023-02-17T15:54:07.407Z,102474.75
2023-02-17T15:59:22.247Z,102475.44
2023-02-17T16:04:26.018Z,102471.09
2023-02-17T16:09:30.118Z,102468.41
2023-02-17T16:14:40.621Z,102469.75
2023-02-17T16:19:44.668Z,102464.22
2023-02-17T16:24:48.594Z,102476.91
2023-02-17T16:29:53.345Z,102478.28
2023-02-17T16:34:57.096Z,102480.56
2023-02-17T16:40:01.483Z,102491.94
2023-02-17T16:45:06.370Z,102483.13
2023-02-17T16:50:38.162Z,102425.72
2023-02-17T16:55:43.380Z,102488.25
2023-02-17T17:00:49.323Z,102481.13
2023-02-17T17:05:54.392Z,102463.75
2023-02-17T17:10:58.919Z,102449.47
2023-02-17T17:16:04.078Z,102462.31
2023-02-17T17:21:07.939Z,102468.63
2023-02-17T17:26:40.014Z,102464.19
2023-02-17T17:31:44.090Z,102457.09
2023-02-17T17:36:49.137Z,102465.84
2023-02-17T17:41:53.135Z,102482.78
2023-02-17T17:46:56.898Z,102470.16
2023-02-17T17:52:00.715Z,102468.38
2023-02-17T17:57:04.592Z,102463.41
2023-02-17T18:02:09.585Z,102452.63
2023-02-17T18:07:13.573Z,102457.28
2023-02-17T18:12:20.595Z,102456.56
2023-02-17T18:17:25.145Z,102455.31
2023-02-17T18:22:29.424Z,102440.44
2023-02-17T18:27:45.932Z,102455.47
2023-02-17T18:32:50.392Z,102449.06
2023-02-17T18:37:54.390Z,102412.03
2023-02-17T18:42:58.387Z,102456.69
2023-02-17T18:48:02.934Z,102458.56
2023-02-17T18:53:06.703Z,102455.34
2023-02-17T18:58:12.331Z,102437.97
2023-02-17T19:03:16.515Z,102310.31
2023-02-17T19:08:20.978Z,102449.91
2023-02-17T19:13:24.807Z,102456.09
2023-02-17T19:18:28.861Z,102447.31
2023-02-17T19:23:32.910Z,102364.88
2023-02-17T19:28:38.513Z,102456.00
2023-02-17T19:33:44.846Z,102435.63
2023-02-17T19:38:50.491Z,102442.81
2023-02-17T19:43:54.184Z,102444.63
2023-02-17T19:48:59.075Z,102454.72
2023-02-17T19:54:03.502Z,102458.19
2023-02-17T19:59:07.300Z,102449.53
2023-02-17T20:04:11.743Z,102457.81
2023-02-17T20:09:22.244Z,102442.16
2023-02-17T20:14:26.087Z,102439.78
2023-02-17T20:19:30.276Z,102424.56
2023-02-17T20:24:35.177Z,102435.53
2023-02-17T20:29:39.337Z,102411.56
2023-02-17T20:34:44.078Z,102437.56
2023-02-17T20:39:47.824Z,102436.06
2023-02-17T20:44:51.731Z,102433.91
2023-02-17T20:49:55.539Z,102438.06
2023-02-17T20:54:59.546Z,102435.03
2023-02-17T21:00:05.820Z,102443.88
2023-02-17T21:05:09.856Z,102429.63
2023-02-17T21:10:23.355Z,102446.25
2023-02-17T21:15:28.399Z,102431.25
2023-02-17T21:20:32.899Z,102426.66
2023-02-17T21:25:39.006Z,102422.41
2023-02-17T21:30:47.607Z,102422.91
2023-02-17T21:35:56.936Z,102418.69
2023-02-17T21:41:06.634Z,102427.66
2023-02-17T21:46:12.209Z,102435.72
2023-02-17T21:51:16.257Z,102429.88
2023-02-17T21:56:22.087Z,102431.03
2023-02-17T22:01:27.897Z,102440.19
2023-02-17T22:06:34.919Z,102426.03
2023-02-17T22:12:01.720Z,102438.38
2023-02-17T22:17:05.669Z,102438.75
2023-02-17T22:22:09.965Z,102410.97
2023-02-17T22:27:13.894Z,102431.09
2023-02-17T22:32:17.775Z,102425.41
2023-02-17T22:37:21.762Z,102452.75
2023-02-17T22:42:25.870Z,102437.41
2023-02-17T22:47:29.763Z,102431.44
2023-02-17T22:52:35.100Z,102434.94
2023-02-17T22:57:38.922Z,102443.78
2023-02-17T23:02:42.746Z,102433.13
2023-02-17T23:07:46.526Z,102428.84
2023-02-17T23:12:50.452Z,102421.72
2023-02-17T23:17:57.834Z,102419.97
2023-02-17T23:23:02.084Z,102433.19
2023-02-17T23:28:06.851Z,102430.16
2023-02-17T23:33:11.350Z,102423.44
2023-02-17T23:38:18.978Z,102419.63
2023-02-17T23:43:23.177Z,102438.19
2023-02-17T23:48:26.879Z,102430.19
2023-02-17T23:53:32.410Z,102403.88
2023-02-17T23:58:36.624Z,102390.06
